Date,TemperatureHighF,TemperatureAvgF,TemperatureLowF,DewpointHighF,DewpointAvgF,DewpointLowF,HumidityHigh,HumidityAvg,HumidityLow,PressureMaxIn,PressureMinIn,WindSpeedMaxMPH,WindSpeedAvgMPH,GustSpeedMaxMPH,PrecipitationSumIn
2013-1-1,78,65,54,62,55,48,88,72,53,30.12,29.93,18,1,18,0.01
2013-1-2,80,69,62,70,63,56,90,81,67,29.96,29.89,13,1,13,0.00
2013-1-3,73,65,59,68,62,56,92,90,83,30.07,29.92,15,1,15,0.32
2013-1-4,60,58,54,58,55,52,93,92,92,30.18,30.06,11,0,11,0.03
2013-1-5,75,61,51,64,56,48,92,82,66,30.19,30.07,12,0,12,0.00
2013-1-6,81,66,60,71,61,56,91,84,68,30.10,29.98,11,0,11,0.02
2013-1-7,68,62,56,61,57,52,91,83,66,30.11,30.00,17,1,17,0.12
2013-1-8,82,70,60,71,63,57,92,80,61,30.11,30.01,12,0,12,0.00
2013-1-9,84,75,68,72,66,62,91,76,55,30.18,30.06,11,1,16,0.00
2013-1-10,85,74,67,70,64,60,91,72,46,30.18,30.10,19,1,19,0.01
2013-1-11,84,73,65,68,63,60,88,72,50,30.16,30.02,16,1,16,0.00
2013-1-12,83,72,64,69,64,61,90,77,52,30.07,29.98,17,1,17,0.00
2013-1-13,81,72,65,68,63,59,86,74,57,30.06,29.95,13,1,13,0.00
2013-1-14,82,70,63,67,60,55,89,72,48,30.07,30.00,13,1,13,0.00
2013-1-15,82,70,61,68,61,55,88,74,52,30.04,29.94,13,1,13,0.01
2013-1-16,82,70,63,68,62,58,90,75,51,29.99,29.90,11,0,11,0.03
2013-1-17,69,62,52,67,57,43,91,83,71,30.06,29.87,18,2,18,0.24
2013-1-18,63,54,43,52,44,35,74,70,64,30.22,30.06,21,1,21,0.00
2013-1-19,76,64,53,59,53,45,79,68,54,30.17,30.02,15,1,15,0.00
2013-1-20,75,65,59,63,57,53,85,75,64,30.07,29.95,11,0,11,0.00
2013-1-21,78,65,60,63,55,50,81,70,54,30.01,29.93,13,0,13,0.00
2013-1-22,67,59,50,51,40,30,72,50,29,30.18,29.98,14,0,14,0.00
2013-1-23,70,58,45,42,37,32,67,48,31,30.27,30.17,13,0,13,0.00
2013-1-24,73,64,53,56,51,48,81,63,47,30.24,30.16,3,0,10,0.24
2013-1-25,77,60,50,60,50,46,90,72,39,30.21,30.09,1,0,3,0.03
2013-1-26,77,62,52,62,54,47,89,75,53,30.18,30.08,3,0,6,0.01
2013-1-27,80,64,53,64,54,49,90,72,40,30.20,30.11,2,0,8,0.02
2013-1-28,81,70,60,66,60,54,90,73,49,30.22,30.10,3,0,9,0.00
2013-1-29,83,71,62,69,63,58,91,76,55,30.13,29.98,4,1,10,0.05
2013-1-30,81,73,67,68,64,62,85,74,56,29.98,29.79,9,4,16,0.00
2013-1-31,69,58,50,61,45,34,87,64,42,30.14,29.80,6,1,16,0.15